Isim, Russia
Current Conditions -  °F | °C
As of 4:30 PM on Sunday 25 Jan 2015 (Local Time) from UACP Reporting Station
Clear Clear  
Wind Chill: -35°   Ceiling: Unl
Heat Index: -17°   Visibility: 6mi
Dew Point: -22°   Wind: 9mph
Humidity: 76%   Direction: 230°SW
Pressure: 30.95"   Gusts: NA
Location:  56.1°N, 69.43°E
Report Text: UACP 251130Z 23004MPS CAVOK M27/M30 Q1048 R23/8/99// NOSIG RMKQFE773/1030
Loading
Personal Weather Stations






























Interactive Weather Map New forecast layout! Learn more

10-Day Weather Forecast

Advertisements
Track Severe Weather on mobile